Clarence, IA

8:33 PM CDT on October 19, 2019 (GMT -0500)
Mosier Seed | | Change Station
Active Advisory: Dense Fog Advisory

Elev 837 ft 41.88 °N, 91.13 °W | Updated 2 minutes ago

Overcast
Overcast
52 °F
Feels Like 52 °F
N
1
Wind Variable Wind from NW
Gusts 0.0 mph

Today
High -- | Low -- °F
--% Chance of Precip.
Yesterday
High -- | Low -- °F
Precip. -- in
Pressure 29.77 in
Visibility 10.0 miles
Clouds Overcast 1100 ft
Dew Point 51 °F
Humidity 97%
Rainfall 0.09 in
Snow Depth Not available.
7:20 AM 6:16 PM
Waning Gibbous, 66% visible
METAR KMXO 200115Z AUTO 30004KT 10SM OVC011 11/11 A2977 RMK AO2
Pressure 29.77 in
Visibility 10.0 miles
Clouds Overcast 1100 ft
Dew Point 51 °F
Humidity 97%
Rainfall 0.09 in
Snow Depth Not available.
7:20 AM 6:16 PM
Waning Gibbous, 66% visible
METAR KMXO 200115Z AUTO 30004KT 10SM OVC011 11/11 A2977 RMK AO2

Get Your Daily Forecast Email!

Thanks for signing up!

Be on the lookout for a verification email in your inbox.

You'll start receiving severe weather alerts in your inbox..

×

10-Day Weather Forecast

Almanac

Astronomy

Oct. 19, 2019 Rise Set
Actual Time
Civil Twilight
Nautical Twilight
Astronomical Twilight
Moon
Length of Visible Light
Length of Day
Tomorrow will be .
, % of the Moon is Illuminated

Today's Extremes

State Highs State Lows

Community

WunderPhotos

Category 6

Welcome to Category 6. This is the collective home for Weather Underground's featured writeups by Dr. Jeff Masters (right), Bob Henson (left), Chris Burt, and other regular contributors.

Nearby

Air Quality

  Air Quality AQ Index Pollutant
Not available.

Snow Depth

Station Depth Elevation

Earthquake Activity

City Distance Mag. Time & Date
Minimum magnitude displayed is 2.5.

Coastal Water Temperatures

Place Temperature

Stations

Nearby Weather Stations

Station Location Temp. Windchill Dew Point Humidity Wind Precip. Elev Updated Type
                   

Watches & Warnings

Dense Fog Advisory
Issued: 8:19 PM CDT Oct. 19, 2019 – National Weather Service

... Dense fog advisory in effect until 9 am CDT Sunday...

* what... visibility one quarter mile or less in dense fog.

* Where... portions of east Central, Northeast and southeast Iowa
and northeast Missouri.

* When... until 9 am CDT Sunday.

* Impacts... hazardous driving conditions due to low visibility.

* Additional details... as skies clear tonight, dense fog will
rapidly develop.

Precautionary/preparedness actions...

If driving, slow down, use your headlights, and leave plenty of
distance ahead of you.